createdAt,value
2018-06-18T00:02:19.118Z,100314.28
2018-06-18T00:04:48.614Z,100308.63
2018-06-18T00:07:17.833Z,100308.37
2018-06-18T00:09:46.802Z,100315.84
2018-06-18T00:12:15.839Z,100314.01
2018-06-18T00:14:44.940Z,100317.14
2018-06-18T00:17:13.997Z,100323.39
2018-06-18T00:19:43.009Z,100324.78
2018-06-18T00:22:17.508Z,100327.49
2018-06-18T00:24:47.866Z,100331.50
2018-06-18T00:27:16.914Z,100326.93
2018-06-18T00:29:45.914Z,100332.77
2018-06-18T00:32:14.972Z,100331.91
2018-06-18T00:34:43.947Z,100330.64
2018-06-18T00:37:12.990Z,100335.78
2018-06-18T00:39:42.087Z,100332.12
2018-06-18T00:42:11.070Z,100332.64
2018-06-18T00:44:41.270Z,100338.16
2018-06-18T00:47:10.263Z,100337.30
2018-06-18T00:49:39.310Z,100337.70
2018-06-18T00:52:08.294Z,100332.52
2018-06-18T00:54:37.246Z,100333.48
2018-06-18T00:57:06.242Z,100334.14
2018-06-18T00:59:35.211Z,100331.91
2018-06-18T01:02:04.192Z,100336.31
2018-06-18T01:04:33.168Z,100335.44
2018-06-18T01:07:02.129Z,100346.91
2018-06-18T01:09:31.196Z,100345.87
2018-06-18T01:12:00.181Z,100345.06
2018-06-18T01:14:29.162Z,100346.78
2018-06-18T01:16:58.171Z,100353.17
2018-06-18T01:19:27.140Z,100354.21
2018-06-18T01:21:56.114Z,100361.69
2018-06-18T01:25:00.399Z,100361.58
2018-06-18T01:27:29.388Z,100356.16
2018-06-18T01:29:58.765Z,100363.67
2018-06-18T01:32:27.892Z,100361.38
2018-06-18T01:34:56.859Z,100365.39
2018-06-18T01:37:25.845Z,100370.38
2018-06-18T01:39:54.799Z,100365.67
2018-06-18T01:42:23.901Z,100368.48
2018-06-18T01:44:52.859Z,100368.39
2018-06-18T01:47:21.851Z,100369.89
2018-06-18T01:49:50.886Z,100377.08
2018-06-18T01:52:20.399Z,100376.66
2018-06-18T01:54:49.579Z,100378.93
2018-06-18T01:57:18.708Z,100383.61
2018-06-18T01:59:47.871Z,100380.71
2018-06-18T02:02:16.885Z,100386.61
2018-06-18T02:04:45.988Z,100392.64
2018-06-18T02:07:14.973Z,100389.17
2018-06-18T02:09:43.991Z,100400.08
2018-06-18T02:12:13.004Z,100399.91
2018-06-18T02:14:41.979Z,100394.07
2018-06-18T02:17:10.970Z,100393.41
2018-06-18T02:19:39.960Z,100390.73
2018-06-18T02:22:08.946Z,100394.31
2018-06-18T02:24:37.927Z,100398.95
2018-06-18T02:27:12.283Z,100400.19
2018-06-18T02:29:46.624Z,100405.33
2018-06-18T02:33:19.843Z,100409.70
2018-06-18T02:35:54.184Z,100409.79
2018-06-18T02:38:28.523Z,100418.33
2018-06-18T02:40:59.202Z,100418.18
2018-06-18T02:43:28.222Z,100422.45
2018-06-18T02:45:57.182Z,100423.30
2018-06-18T02:48:26.123Z,100427.00
2018-06-18T02:50:55.538Z,100434.89
2018-06-18T02:53:24.555Z,100431.13
2018-06-18T02:55:53.610Z,100444.90
2018-06-18T02:58:22.606Z,100446.48
2018-06-18T03:00:51.652Z,100452.84
2018-06-18T03:03:21.142Z,100449.79
2018-06-18T03:05:50.212Z,100451.38
2018-06-18T03:08:19.163Z,100453.73
2018-06-18T03:10:48.177Z,100462.83
2018-06-18T03:13:17.164Z,100468.13
2018-06-18T03:15:46.158Z,100467.33
2018-06-18T03:18:20.746Z,100468.07
2018-06-18T03:20:55.337Z,100480.61
2018-06-18T03:23:29.676Z,100487.81
2018-06-18T03:26:05.357Z,100483.23
2018-06-18T03:28:39.813Z,100482.44
2018-06-18T03:31:09.327Z,100476.36
2018-06-18T03:33:38.303Z,100478.32
2018-06-18T03:36:08.105Z,100478.81
2018-06-18T03:38:37.074Z,100479.69
2018-06-18T03:41:06.681Z,100478.52
2018-06-18T03:43:38.910Z,100480.63
2018-06-18T03:46:07.954Z,100485.09
2018-06-18T03:48:36.907Z,100478.65
2018-06-18T03:51:06.127Z,100473.89
2018-06-18T03:53:35.075Z,100479.72
2018-06-18T03:56:08.324Z,100475.31
2018-06-18T03:58:37.350Z,100476.97
2018-06-18T04:01:29.016Z,100475.59
2018-06-18T04:04:06.208Z,100471.34
2018-06-18T04:06:40.513Z,100473.18
2018-06-18T04:10:17.734Z,100476.27
2018-06-18T04:12:46.730Z,100462.16
2018-06-18T04:15:15.774Z,100459.30
2018-06-18T04:17:44.787Z,100458.13
2018-06-18T04:20:13.746Z,100462.08
2018-06-18T04:22:42.804Z,100468.62
2018-06-18T04:25:11.812Z,100464.18
2018-06-18T04:27:40.843Z,100461.61
2018-06-18T04:30:09.835Z,100459.52
2018-06-18T04:32:38.843Z,100458.84
2018-06-18T04:35:09.292Z,100459.79
2018-06-18T04:37:38.343Z,100460.98
2018-06-18T04:40:07.975Z,100455.27
2018-06-18T04:42:42.341Z,100458.20
2018-06-18T04:45:16.675Z,100475.17
2018-06-18T04:47:51.240Z,100473.96
2018-06-18T04:50:25.662Z,100479.77
2018-06-18T04:52:54.690Z,100477.33
2018-06-18T04:55:23.807Z,100465.77
2018-06-18T04:57:52.815Z,100453.99
2018-06-18T05:00:42.328Z,100461.55
2018-06-18T05:03:11.499Z,100455.98
2018-06-18T05:05:40.533Z,100454.42
2018-06-18T05:09:26.487Z,100456.98
2018-06-18T05:11:55.480Z,100453.03
2018-06-18T05:14:24.608Z,100458.68
2018-06-18T05:16:53.623Z,100465.86
2018-06-18T05:19:22.764Z,100472.56
2018-06-18T05:21:51.758Z,100473.77
2018-06-18T05:24:20.774Z,100470.42
2018-06-18T05:26:52.099Z,100470.78
2018-06-18T05:29:22.850Z,100476.10
2018-06-18T05:31:52.008Z,100471.08
2018-06-18T05:34:24.200Z,100475.67
2018-06-18T05:36:55.036Z,100474.76
2018-06-18T05:39:24.045Z,100474.98
2018-06-18T05:41:53.016Z,100485.63
2018-06-18T05:44:22.087Z,100481.49
2018-06-18T05:46:51.097Z,100488.63
2018-06-18T05:49:20.117Z,100497.20
2018-06-18T05:51:49.230Z,100500.11
2018-06-18T05:54:18.175Z,100493.66
2018-06-18T05:56:47.150Z,100498.27
2018-06-18T05:59:16.280Z,100493.38
2018-06-18T06:01:45.271Z,100492.88
2018-06-18T06:04:14.302Z,100498.33
2018-06-18T06:06:43.280Z,100494.81
2018-06-18T06:09:13.075Z,100493.72
2018-06-18T06:11:42.248Z,100495.13
2018-06-18T06:14:11.240Z,100500.45
2018-06-18T06:16:40.234Z,100497.53
2018-06-18T06:19:09.227Z,100504.22
2018-06-18T06:21:38.215Z,100502.63
2018-06-18T06:24:07.206Z,100503.16
2018-06-18T06:26:36.267Z,100502.42
2018-06-18T06:29:05.281Z,100500.70
2018-06-18T06:31:34.343Z,100507.80
2018-06-18T06:34:03.353Z,100507.95
2018-06-18T06:36:32.381Z,100519.03
2018-06-18T06:39:01.374Z,100528.61
2018-06-18T06:41:31.050Z,100528.31
2018-06-18T06:44:00.012Z,100512.75
2018-06-18T06:46:29.186Z,100520.25
2018-06-18T06:48:58.266Z,100516.14
2018-06-18T06:51:27.197Z,100522.88
2018-06-18T06:53:56.409Z,100533.88
2018-06-18T06:56:25.417Z,100537.08
2018-06-18T06:58:54.426Z,100541.89
2018-06-18T07:01:23.509Z,100543.61
2018-06-18T07:03:52.429Z,100538.05
2018-06-18T07:06:21.641Z,100546.48
2018-06-18T07:08:50.697Z,100551.31
2018-06-18T07:11:19.657Z,100545.36
2018-06-18T07:13:48.671Z,100551.98
2018-06-18T07:16:17.674Z,100553.28
2018-06-18T07:18:46.806Z,100547.72
2018-06-18T07:21:15.792Z,100543.49
2018-06-18T07:23:44.826Z,100536.80
2018-06-18T07:26:13.803Z,100533.85
2018-06-18T07:28:42.830Z,100536.43
2018-06-18T07:31:11.783Z,100543.61
2018-06-18T07:33:40.847Z,100548.13
2018-06-18T07:36:09.932Z,100549.48
2018-06-18T07:38:38.925Z,100557.08
2018-06-18T07:41:08.148Z,100556.09
2018-06-18T07:43:37.183Z,100559.94
2018-06-18T07:46:06.320Z,100551.23
2018-06-18T07:48:35.280Z,100549.39
2018-06-18T07:51:04.276Z,100561.75
2018-06-18T07:53:33.277Z,100549.37
2018-06-18T07:56:02.282Z,100535.04
2018-06-18T07:58:31.263Z,100539.52
2018-06-18T08:01:00.356Z,100526.59
2018-06-18T08:03:29.388Z,100528.28
2018-06-18T08:05:58.420Z,100526.95
2018-06-18T08:08:27.411Z,100530.76
2018-06-18T08:10:57.893Z,100514.77
2018-06-18T08:13:26.955Z,100526.19
2018-06-18T08:15:55.974Z,100540.20
2018-06-18T08:18:24.963Z,100538.76
2018-06-18T08:20:53.986Z,100552.27
2018-06-18T08:23:22.967Z,100555.85
2018-06-18T08:25:51.997Z,100555.78
2018-06-18T08:28:20.983Z,100550.39
2018-06-18T08:30:49.984Z,100559.34
2018-06-18T08:33:18.956Z,100563.75
2018-06-18T08:35:47.948Z,100570.62
2018-06-18T08:38:16.984Z,100574.54
2018-06-18T08:40:46.121Z,100578.18
2018-06-18T08:43:15.087Z,100592.42
2018-06-18T08:45:44.051Z,100596.64
2018-06-18T08:48:17.209Z,100586.78
2018-06-18T08:50:51.682Z,100596.33
2018-06-18T08:53:26.110Z,100600.38
2018-06-18T08:56:00.432Z,100601.34
2018-06-18T08:58:34.884Z,100594.73
2018-06-18T09:01:08.222Z,100591.30
2018-06-18T09:03:42.576Z,100589.31
2018-06-18T09:06:11.553Z,100596.72
2018-06-18T09:08:46.080Z,100605.05
2018-06-18T09:11:15.287Z,100613.89
2018-06-18T09:13:44.348Z,100619.27
2018-06-18T09:16:13.553Z,100624.95
2018-06-18T09:18:42.845Z,100623.17
2018-06-18T09:21:12.095Z,100620.20
2018-06-18T09:23:41.183Z,100631.87
2018-06-18T09:26:10.246Z,100632.55
2018-06-18T09:28:39.243Z,100630.62
2018-06-18T09:31:08.248Z,100630.98
2018-06-18T09:33:37.256Z,100615.99
2018-06-18T09:36:06.251Z,100615.34
2018-06-18T09:38:35.240Z,100614.14
2018-06-18T09:41:04.245Z,100609.21
2018-06-18T09:43:33.270Z,100616.56
2018-06-18T09:46:02.255Z,100609.92
2018-06-18T09:48:36.793Z,100620.13
2018-06-18T09:51:11.099Z,100616.30
2018-06-18T09:53:46.304Z,100603.41
2018-06-18T09:56:20.644Z,100610.44
2018-06-18T09:58:55.368Z,100604.44
2018-06-18T10:01:30.588Z,100609.56
2018-06-18T10:04:00.288Z,100610.14
2018-06-18T10:06:30.465Z,100615.84
2018-06-18T10:09:02.857Z,100613.00
2018-06-18T10:11:32.117Z,100600.56
2018-06-18T10:14:01.248Z,100592.55
2018-06-18T10:16:30.211Z,100594.34
2018-06-18T10:18:59.567Z,100591.93
2018-06-18T10:21:28.867Z,100580.91
2018-06-18T10:23:58.326Z,100570.41
2018-06-18T10:26:27.331Z,100576.98
2018-06-18T10:28:56.346Z,100579.63
2018-06-18T10:31:25.315Z,100577.48
2018-06-18T10:33:59.714Z,100584.70
2018-06-18T10:36:34.034Z,100582.33
2018-06-18T10:39:08.326Z,100580.92
2018-06-18T10:41:42.844Z,100585.00
2018-06-18T10:44:11.915Z,100585.22
2018-06-18T10:46:41.059Z,100586.48
2018-06-18T10:49:10.100Z,100579.18
2018-06-18T10:51:39.115Z,100580.50
2018-06-18T10:54:08.518Z,100577.98
2018-06-18T10:56:37.512Z,100576.73
2018-06-18T10:59:06.484Z,100567.42
2018-06-18T11:01:35.466Z,100571.34
2018-06-18T11:04:04.437Z,100574.52
2018-06-18T11:06:35.643Z,100580.45
2018-06-18T11:09:08.437Z,100571.44
2018-06-18T11:11:37.444Z,100586.39
2018-06-18T11:14:06.444Z,100585.90
2018-06-18T11:16:35.756Z,100589.11
2018-06-18T11:19:10.883Z,100581.70
2018-06-18T11:21:45.284Z,100580.45
2018-06-18T11:24:19.581Z,100575.84
2018-06-18T11:26:54.109Z,100566.80
2018-06-18T11:29:22.984Z,100569.42
2018-06-18T11:31:52.187Z,100572.64
2018-06-18T11:34:21.179Z,100568.05
2018-06-18T11:36:50.218Z,100574.43
2018-06-18T11:39:19.258Z,100568.30
2018-06-18T11:41:48.551Z,100566.56
2018-06-18T11:44:17.437Z,100570.23
2018-06-18T11:46:46.425Z,100579.73
2018-06-18T11:49:15.410Z,100571.27
2018-06-18T11:51:44.398Z,100566.77
2018-06-18T11:54:13.862Z,100570.16
2018-06-18T11:56:43.224Z,100574.51
2018-06-18T11:59:18.381Z,100567.91
2018-06-18T12:01:53.306Z,100569.42
2018-06-18T12:04:28.000Z,100565.17
2018-06-18T12:07:02.319Z,100562.94
2018-06-18T12:09:33.247Z,100557.75
2018-06-18T12:12:02.478Z,100555.41
2018-06-18T12:14:31.456Z,100562.42
2018-06-18T12:17:00.443Z,100557.43
2018-06-18T12:19:29.454Z,100562.94
2018-06-18T12:21:58.466Z,100562.37
2018-06-18T12:24:27.492Z,100551.89
2018-06-18T12:26:56.512Z,100542.58
2018-06-18T12:29:25.524Z,100540.35
2018-06-18T12:31:55.553Z,100539.13
2018-06-18T12:34:24.559Z,100545.45
2018-06-18T12:36:53.679Z,100542.88
2018-06-18T12:39:22.682Z,100539.39
2018-06-18T12:41:58.519Z,100538.86
2018-06-18T12:44:31.750Z,100531.16
2018-06-18T12:47:06.201Z,100532.23
2018-06-18T12:49:40.598Z,100528.69
2018-06-18T12:52:15.562Z,100526.86
2018-06-18T12:54:50.407Z,100527.64
2018-06-18T12:57:19.935Z,100530.30
2018-06-18T12:59:49.341Z,100527.22
2018-06-18T13:02:42.455Z,100523.31
2018-06-18T13:05:11.732Z,100524.27
2018-06-18T13:07:40.681Z,100517.96
2018-06-18T13:10:10.206Z,100526.27
2018-06-18T13:12:39.566Z,100522.06
2018-06-18T13:15:08.983Z,100530.14
2018-06-18T13:17:37.985Z,100525.16
2018-06-18T13:20:07.607Z,100519.84
2018-06-18T13:22:36.853Z,100520.23
2018-06-18T13:25:06.452Z,100525.37
2018-06-18T13:27:40.788Z,100509.39
2018-06-18T13:30:09.986Z,100514.63
2018-06-18T13:32:38.966Z,100505.47
2018-06-18T13:35:08.098Z,100502.14
2018-06-18T13:37:42.569Z,100510.51
2018-06-18T13:40:16.993Z,100502.23
2018-06-18T13:42:51.442Z,100509.45
2018-06-18T13:48:11.658Z,100509.52
2018-06-18T13:50:40.670Z,100504.59
2018-06-18T13:53:09.694Z,100499.38
2018-06-18T13:55:38.759Z,100515.68
2018-06-18T13:58:07.762Z,100508.53
2018-06-18T14:00:36.859Z,100500.73
2018-06-18T14:03:05.931Z,100504.40
2018-06-18T14:05:34.957Z,100502.30
2018-06-18T14:08:03.991Z,100510.93
2018-06-18T14:10:33.717Z,100503.22
2018-06-18T14:13:02.701Z,100503.61
2018-06-18T14:15:31.664Z,100507.05
2018-06-18T14:18:00.667Z,100499.42
2018-06-18T14:20:29.711Z,100508.28
2018-06-18T14:22:58.684Z,100507.33
2018-06-18T14:25:27.655Z,100504.27
2018-06-18T14:27:56.670Z,100510.84
2018-06-18T14:30:31.033Z,100514.36
2018-06-18T14:33:05.253Z,100519.47
2018-06-18T14:35:39.546Z,100517.42
2018-06-18T14:38:13.919Z,100517.66
2018-06-18T14:40:43.239Z,100518.55
2018-06-18T14:43:12.198Z,100517.30
2018-06-18T14:45:41.186Z,100512.63
2018-06-18T14:48:10.258Z,100515.02
2018-06-18T14:50:39.206Z,100523.68
2018-06-18T14:53:08.351Z,100520.41
2018-06-18T14:55:37.284Z,100525.15
2018-06-18T14:58:06.300Z,100531.22
2018-06-18T15:00:35.579Z,100524.26
2018-06-18T15:03:04.553Z,100520.30
2018-06-18T15:05:36.636Z,100518.11
2018-06-18T15:08:06.002Z,100525.23
2018-06-18T15:10:40.532Z,100519.75
2018-06-18T15:13:11.583Z,100521.86
2018-06-18T15:15:45.949Z,100522.53
2018-06-18T15:18:14.897Z,100523.30
2018-06-18T15:20:43.989Z,100523.81
2018-06-18T15:23:12.964Z,100516.03
2018-06-18T15:25:44.871Z,100516.77
2018-06-18T15:28:13.880Z,100510.38
2018-06-18T15:30:43.066Z,100507.30
2018-06-18T15:33:12.078Z,100506.94
2018-06-18T15:35:41.185Z,100499.56
2018-06-18T15:38:10.206Z,100500.16
2018-06-18T15:40:40.678Z,100499.53
2018-06-18T15:43:09.666Z,100502.75
2018-06-18T15:45:38.674Z,100500.47
2018-06-18T15:48:07.663Z,100502.06
2018-06-18T15:50:36.759Z,100483.72
2018-06-18T15:53:05.880Z,100484.02
2018-06-18T15:55:34.849Z,100483.91
2018-06-18T15:58:03.898Z,100485.64
2018-06-18T16:00:32.866Z,100484.59
2018-06-18T16:03:01.831Z,100483.42
2018-06-18T16:05:30.808Z,100470.14
2018-06-18T16:07:59.776Z,100478.55
2018-06-18T16:10:28.844Z,100475.50
2018-06-18T16:12:57.787Z,100471.44
2018-06-18T16:15:26.769Z,100472.36
2018-06-18T16:17:55.752Z,100466.44
2018-06-18T16:20:24.780Z,100467.14
2018-06-18T16:22:54.123Z,100470.56
2018-06-18T16:25:23.125Z,100467.28
2018-06-18T16:27:52.159Z,100461.59
2018-06-18T16:30:21.193Z,100463.92
2018-06-18T16:32:50.214Z,100475.26
2018-06-18T16:35:19.906Z,100481.50
2018-06-18T16:37:48.910Z,100476.96
2018-06-18T16:40:17.945Z,100478.16
2018-06-18T16:42:47.052Z,100479.67
2018-06-18T16:45:16.029Z,100487.47
2018-06-18T16:47:45.012Z,100482.59
2018-06-18T16:50:14.027Z,100486.73
2018-06-18T16:52:43.011Z,100481.58
2018-06-18T16:55:12.133Z,100474.25
2018-06-18T16:57:41.141Z,100474.88
2018-06-18T17:00:10.220Z,100481.09
2018-06-18T17:02:39.217Z,100484.55
2018-06-18T17:05:08.179Z,100481.45
2018-06-18T17:07:37.766Z,100485.16
2018-06-18T17:10:07.134Z,100477.19
2018-06-18T17:12:36.179Z,100485.34
2018-06-18T17:15:05.186Z,100480.73
2018-06-18T17:17:34.195Z,100485.20
2018-06-18T17:20:03.196Z,100479.88
2018-06-18T17:22:32.293Z,100484.56
2018-06-18T17:25:01.247Z,100478.95
2018-06-18T17:27:30.237Z,100477.80
2018-06-18T17:29:59.437Z,100476.14
2018-06-18T17:32:28.453Z,100473.48
2018-06-18T17:34:57.518Z,100476.52
2018-06-18T17:37:26.530Z,100470.52
2018-06-18T17:39:55.504Z,100473.38
2018-06-18T17:42:24.615Z,100469.03
2018-06-18T17:44:53.816Z,100464.11
2018-06-18T17:47:23.304Z,100464.34
2018-06-18T17:49:52.346Z,100466.70
2018-06-18T17:52:22.462Z,100464.03
2018-06-18T17:54:52.806Z,100459.62
2018-06-18T17:57:21.978Z,100460.42
2018-06-18T17:59:51.161Z,100458.96
2018-06-18T18:02:20.428Z,100460.77
2018-06-18T18:04:49.572Z,100465.95
2018-06-18T18:07:18.690Z,100466.19
2018-06-18T18:09:47.749Z,100458.13
2018-06-18T18:12:16.756Z,100459.55
2018-06-18T18:14:45.742Z,100461.34
2018-06-18T18:17:14.834Z,100476.41
2018-06-18T18:19:44.767Z,100465.80
2018-06-18T18:22:13.862Z,100470.78
2018-06-18T18:24:45.075Z,100466.47
2018-06-18T18:27:14.091Z,100467.30
2018-06-18T18:29:43.155Z,100472.29
2018-06-18T18:32:12.156Z,100473.19
2018-06-18T18:34:41.117Z,100470.91
2018-06-18T18:37:10.207Z,100468.34
2018-06-18T18:39:39.206Z,100469.64
2018-06-18T18:42:08.571Z,100470.44
2018-06-18T18:44:37.723Z,100463.30
2018-06-18T18:47:06.686Z,100467.14
2018-06-18T18:49:35.756Z,100471.52
2018-06-18T18:52:04.814Z,100469.33
2018-06-18T18:55:55.892Z,100477.91
2018-06-18T18:59:34.893Z,100475.23
2018-06-18T19:02:04.005Z,100477.09
2018-06-18T19:04:56.905Z,100479.66
2018-06-18T19:07:33.068Z,100485.92
2018-06-18T19:10:11.327Z,100483.12
2018-06-18T19:12:40.339Z,100492.38
2018-06-18T19:15:09.327Z,100492.53
2018-06-18T19:17:38.363Z,100494.73
2018-06-18T19:20:11.517Z,100497.42
2018-06-18T19:22:40.575Z,100496.55
2018-06-18T19:25:09.580Z,100502.67
2018-06-18T19:27:38.722Z,100510.53
2018-06-18T19:30:08.879Z,100512.11
2018-06-18T19:32:38.093Z,100511.78
2018-06-18T19:35:07.187Z,100515.73
2018-06-18T19:37:36.190Z,100525.02
2018-06-18T19:40:06.073Z,100526.49
2018-06-18T19:42:35.055Z,100531.42
2018-06-18T19:45:04.839Z,100534.55
2018-06-18T19:47:42.359Z,100538.13
2018-06-18T19:50:11.679Z,100538.75
2018-06-18T19:52:40.921Z,100547.55
2018-06-18T19:55:15.165Z,100546.56
2018-06-18T19:57:44.339Z,100543.67
2018-06-18T20:00:13.828Z,100542.62
2018-06-18T20:02:42.852Z,100542.88
2018-06-18T20:05:13.062Z,100538.85
2018-06-18T20:07:52.216Z,100547.99
2018-06-18T20:10:22.049Z,100547.59
2018-06-18T20:12:51.165Z,100545.70
2018-06-18T20:15:20.176Z,100550.53
2018-06-18T20:17:50.283Z,100558.02
2018-06-18T20:20:19.372Z,100554.67
2018-06-18T20:22:48.338Z,100561.42
2018-06-18T20:25:27.262Z,100565.52
2018-06-18T20:27:56.335Z,100562.19
2018-06-18T20:30:25.410Z,100565.87
2018-06-18T20:32:54.438Z,100562.83
2018-06-18T20:35:27.671Z,100572.03
2018-06-18T20:37:56.832Z,100575.37
2018-06-18T20:40:26.251Z,100582.25
2018-06-18T20:42:55.463Z,100575.06
2018-06-18T20:45:24.472Z,100582.28
2018-06-18T20:47:53.517Z,100586.13
2018-06-18T20:50:22.571Z,100586.60
2018-06-18T20:52:51.577Z,100589.14
2018-06-18T20:55:20.609Z,100586.77
2018-06-18T20:57:49.593Z,100591.15
2018-06-18T21:00:19.231Z,100590.52
2018-06-18T21:02:48.233Z,100594.34
2018-06-18T21:05:17.235Z,100592.75
2018-06-18T21:07:46.258Z,100596.56
2018-06-18T21:10:15.301Z,100597.77
2018-06-18T21:12:44.406Z,100599.20
2018-06-18T21:15:13.459Z,100599.75
2018-06-18T21:17:42.451Z,100597.34
2018-06-18T21:20:11.408Z,100594.80
2018-06-18T21:22:40.364Z,100594.07
2018-06-18T21:25:09.350Z,100599.98
2018-06-18T21:27:38.427Z,100597.44
2018-06-18T21:30:08.173Z,100592.14
2018-06-18T21:32:37.153Z,100601.11
2018-06-18T21:35:06.426Z,100602.52
2018-06-18T21:37:35.431Z,100600.72
2018-06-18T21:40:04.420Z,100603.73
2018-06-18T21:42:33.434Z,100605.66
2018-06-18T21:45:06.109Z,100600.05
2018-06-18T21:47:35.249Z,100605.39
2018-06-18T21:50:04.483Z,100599.17
2018-06-18T21:52:33.469Z,100599.27
2018-06-18T21:55:02.519Z,100595.41
2018-06-18T21:57:31.504Z,100600.84
2018-06-18T22:00:00.567Z,100603.02
2018-06-18T22:02:29.590Z,100600.30
2018-06-18T22:04:58.592Z,100599.08
2018-06-18T22:07:27.655Z,100601.23
2018-06-18T22:09:56.644Z,100610.03
2018-06-18T22:12:25.673Z,100604.11
2018-06-18T22:14:54.624Z,100600.43
2018-06-18T22:17:23.682Z,100604.10
2018-06-18T22:19:53.722Z,100608.80
2018-06-18T22:22:22.841Z,100609.05
2018-06-18T22:24:51.924Z,100598.98
2018-06-18T22:27:20.937Z,100603.28
2018-06-18T22:29:50.005Z,100601.61
2018-06-18T22:32:19.033Z,100603.67
2018-06-18T22:34:48.041Z,100602.31
2018-06-18T22:37:17.739Z,100602.56
2018-06-18T22:39:46.730Z,100598.71
2018-06-18T22:42:15.715Z,100599.50
2018-06-18T22:44:44.818Z,100599.11
2018-06-18T22:47:13.786Z,100597.63
2018-06-18T22:49:42.822Z,100594.20
2018-06-18T22:52:11.811Z,100602.28
2018-06-18T22:54:47.039Z,100604.04
2018-06-18T22:57:16.690Z,100601.89
2018-06-18T22:59:46.503Z,100602.14
2018-06-18T23:02:18.747Z,100604.38
2018-06-18T23:04:47.754Z,100602.55
2018-06-18T23:07:16.734Z,100607.41
2018-06-18T23:09:45.698Z,100607.72
2018-06-18T23:12:15.223Z,100609.34
2018-06-18T23:14:44.341Z,100609.42
2018-06-18T23:17:13.302Z,100606.03
2018-06-18T23:19:42.274Z,100604.87
2018-06-18T23:22:11.417Z,100594.80
2018-06-18T23:24:40.424Z,100598.87
2018-06-18T23:27:09.973Z,100597.66
2018-06-18T23:29:38.964Z,100598.53
2018-06-18T23:32:07.983Z,100595.81
2018-06-18T23:34:36.997Z,100603.73
2018-06-18T23:37:06.013Z,100597.83
2018-06-18T23:39:35.035Z,100602.38
2018-06-18T23:42:10.198Z,100602.30
2018-06-18T23:44:39.180Z,100594.23
2018-06-18T23:47:08.198Z,100596.47
2018-06-18T23:49:37.213Z,100592.31
2018-06-18T23:52:06.233Z,100593.41
2018-06-18T23:54:35.235Z,100594.16
2018-06-18T23:57:04.319Z,100586.88
2018-06-18T23:59:33.560Z,100588.59
